»·PEaware :: DCM2499 KCRQ-KONT

DCM2499 :: KCRQ-KONT

FLIGHT INFORMATION

Flight Status: Arrived
Operator:
DotCom
More flights by this operator :: More flights under this callsign
Pilot: Alec D. (17934)
Aircraft: GATES LEARJET LEARJET 35/36
(LJ35)
More flights by this aircraft type
Origin: KCRQ McClellan-Palomar
United States
Destination: KONT Ontario Intl
United States
More flights between these airports :: More routes between these airports
Route: +V186 TANNR HDF PETIS
File this flight plan on PilotEdge
Remarks:
Altitude:
(Current/Filed)
10,000ft
Speed:
(Current/Filed)
350kts
Departed: 16-Jan-20 11:23 AM
Arrived: 16-Jan-20 11:51 AM
Distance/Time
Traveled:
58nm/0:27
Distance/Time
To Go:
Arrived

Flight Plot

Page will automatically refresh every two minutes.


Map Options




Map Legend


Flown Route
Filed Route
Departure Airport
Arrival Airport
Navaid (VOR, NDB)
Fix

Horizontal Profiles

Position Reports

Time Latitude Longitude Heading Altitude Ground
Speed
16-Jan-20 11:03 33.125584 -117.283376 259 334ft 0kts
16-Jan-20 11:04 33.125584 -117.283376 259 334ft 0kts
16-Jan-20 11:05 33.125584 -117.283377 259 334ft 0kts
16-Jan-20 11:06 33.125583 -117.283385 259 334ft 0kts
16-Jan-20 11:07 33.125582 -117.283392 259 334ft 0kts
16-Jan-20 11:08 33.125581 -117.283400 259 334ft 0kts
16-Jan-20 11:09 33.125580 -117.283407 259 334ft 0kts
16-Jan-20 11:10 33.125578 -117.283414 259 334ft 0kts
16-Jan-20 11:11 33.125577 -117.283422 259 334ft 0kts
16-Jan-20 11:12 33.125576 -117.283429 259 334ft 0kts
16-Jan-20 11:13 33.125575 -117.283437 259 334ft 0kts
16-Jan-20 11:14 33.125574 -117.283444 259 334ft 0kts
16-Jan-20 11:15 33.125573 -117.283451 259 334ft 0kts
16-Jan-20 11:16 33.125572 -117.283459 259 334ft 0kts
16-Jan-20 11:17 33.125821 -117.283824 356 334ft 4kts
16-Jan-20 11:18 33.126970 -117.281620 79 334ft 8kts
16-Jan-20 11:19 33.127398 -117.278966 79 334ft 12kts
16-Jan-20 11:20 33.127921 -117.275672 79 334ft 10kts
16-Jan-20 11:21 33.128379 -117.272814 78 334ft 9kts
16-Jan-20 11:22 33.129141 -117.274562 258 334ft 67kts
16-Jan-20 11:23 33.122401 -117.329796 261 2398ft 204kts
16-Jan-20 11:24 33.114266 -117.400877 261 2990ft 222kts
16-Jan-20 11:25 33.105630 -117.475687 261 4335ft 237kts
16-Jan-20 11:26 33.098171 -117.556878 262 7233ft 251kts
16-Jan-20 11:27 33.091899 -117.641016 262 9688ft 255kts
16-Jan-20 11:28 33.086071 -117.724283 262 10000ft 249kts
16-Jan-20 11:29 33.110756 -117.793195 340 10008ft 269kts
16-Jan-20 11:30 33.168853 -117.743857 75 9999ft 303kts
16-Jan-20 11:31 33.187084 -117.644191 81 10004ft 311kts
16-Jan-20 11:32 33.203949 -117.538332 81 10000ft 335kts
16-Jan-20 11:33 33.221181 -117.429278 81 10000ft 334kts
16-Jan-20 11:34 33.238617 -117.319914 81 10000ft 334kts
16-Jan-20 11:35 33.298779 -117.243837 17 10005ft 338kts
16-Jan-20 11:36 33.387058 -117.205368 21 10001ft 339kts
16-Jan-20 11:37 33.475223 -117.165292 9 9993ft 338kts
16-Jan-20 11:38 33.568896 -117.168938 354 9977ft 337kts
16-Jan-20 11:39 33.662435 -117.176227 353 9977ft 337kts
16-Jan-20 11:40 33.754231 -117.183664 351 9957ft 299kts
16-Jan-20 11:41 33.825402 -117.217109 329 8148ft 257kts
16-Jan-20 11:42 33.884664 -117.255135 329 6230ft 230kts
16-Jan-20 11:43 33.938180 -117.289676 329 5983ft 220kts
16-Jan-20 11:44 33.991951 -117.324388 330 4808ft 218kts
16-Jan-20 11:45 34.043461 -117.360138 313 4293ft 213kts
16-Jan-20 11:46 34.054302 -117.422056 269 3589ft 180kts
16-Jan-20 11:47 34.055249 -117.475864 267 2682ft 157kts
16-Jan-20 11:48 34.054872 -117.527126 269 1867ft 146kts
16-Jan-20 11:49 34.054967 -117.575338 269 1082ft 151kts
16-Jan-20 11:50 34.054702 -117.598705 166 947ft 8kts
16-Jan-20 11:51 34.053674 -117.598722 270 947ft 8kts
16-Jan-20 11:52 34.053685 -117.602917 269 947ft 16kts
16-Jan-20 11:53 34.053693 -117.608269 269 947ft 24kts

Navigation Log

Ident Type
Flight plan parsing failed, navigation log unavailable